Bitflower — SBJE — position and weather

sailwx.info

Track history (hours):
 
Tides and Currents Weather Stations Pressure Air Temp Water Temp Dewpoint Dewpoint Depression Visibility Wind Speed Wind Dir Waves Ship Positions

Bitflower

Last reported at 2017-Feb-24 11:31 UTC. Time now 2017-Feb-24 21:52 UTC.
Position N 52°18' E 003°47'.

; draft 6 m.

Type: Ship. MMSI: 266009000.

Date/timePositionNaut miles runAvg speedWind from/ knotsBaromVisibWave heightAir tempDewpointWater temp
2017-Feb-24 11:31N 52°18' E 003°47'1111.4
2017-Feb-24 10:32N 52°29' E 003°51'1111.3
2017-Feb-24 09:32N 52°40' E 003°54'175 8.7
2017-Feb-23 13:30N 54°00' E 008°14'1415.1
2017-Feb-23 12:33N 53°57' E 008°38'1313.0
2017-Feb-23 11:34N 53°51' E 008°57'1110.9
2017-Feb-23 10:33N 53°53' E 009°15'1110.7
2017-Feb-23 09:33N 53°44' E 009°26'1111.2
2017-Feb-23 08:33N 53°35' E 009°37'1211.8
2017-Feb-23 07:33N 53°32' E 009°56'1 1.4
2017-Feb-23 06:29N 53°31' E 009°57'0 0.0
2017-Feb-23 05:32N 53°31' E 009°57'0 0.0
2017-Feb-23 04:32N 53°31' E 009°57'0 0.0
2017-Feb-23 03:32N 53°31' E 009°57'0 0.0
2017-Feb-23 02:29N 53°31' E 009°57'0 0.0
2017-Feb-23 01:32N 53°31' E 009°57'0 0.0
2017-Feb-23 00:32N 53°31' E 009°57'0 0.0
2017-Feb-22 23:32N 53°31' E 009°57'0 0.0
2017-Feb-22 22:32N 53°31' E 009°57'0 0.0
2017-Feb-22 21:32N 53°31' E 009°57'0 0.0
2017-Feb-22 20:32N 53°31' E 009°57'0 0.0
2017-Feb-22 19:33N 53°31' E 009°57'0 0.0
2017-Feb-22 18:33N 53°31' E 009°57'0 0.0
2017-Feb-22 17:33N 53°31' E 009°57'0 0.0
2017-Feb-22 16:33N 53°31' E 009°57'0 0.0
2017-Feb-22 15:33N 53°31' E 009°57'1 1.2
2017-Feb-22 14:33N 53°32' E 009°56'7 7.5
2017-Feb-22 13:34N 53°34' E 009°44'1110.5
2017-Feb-22 12:34N 53°40' E 009°30'1312.6
2017-Feb-22 11:33N 53°51' E 009°19'1212.2
2017-Feb-22 10:33N 53°51' E 008°58'1212.0
2017-Feb-22 09:33N 53°56' E 008°40'1313.1
2017-Feb-22 08:33N 53°59' E 008°18'1010.3
2017-Feb-22 07:33N 53°58' E 008°01'15311.5
2017-Feb-21 18:18N 52°49' E 004°13'1011.4
2017-Feb-21 17:24N 52°42' E 004°01'1011.3
2017-Feb-21 16:32N 52°35' E 003°50'7911.2
2017-Feb-21 09:27N 51°36' E 002°23'1111.9
2017-Feb-21 08:32N 51°27' E 002°13'1212.5
2017-Feb-21 07:33N 51°16' E 002°05'1211.9
2017-Feb-21 06:33N 51°09' E 001°50'1111.2
2017-Feb-21 05:33N 51°01' E 001°37'1110.6
2017-Feb-21 04:32N 50°53' E 001°26'68 9.8
2017-Feb-20 21:33N 50°19' W 000°07'3310.1
2017-Feb-20 18:16N 50°10' W 000°58'810.3
2017-Feb-20 17:29N 50°08' W 001°10'1010.8
2017-Feb-20 16:33N 50°05' W 001°25'1111.3
2017-Feb-20 15:33N 50°02' W 001°42'1211.9
2017-Feb-20 14:33N 49°59' W 001°60'6011.6
2017-Feb-20 09:23N 49°50' W 003°32'  
Track history (hours):
 
Tides and Currents Weather Stations Pressure Air Temp Water Temp Dewpoint Dewpoint Depression Visibility Wind Speed Wind Dir Waves Ship Positions

Bitflower

Last reported at 2017-Feb-24 11:31 UTC. Time now 2017-Feb-24 21:52 UTC.
Position N 52°18' E 003°47'.

; draft 6 m.

Type: Ship. MMSI: 266009000.

Date/timePositionNaut miles runAvg speedWind from/ knotsBaromVisibWave heightAir tempDewpointWater temp
2017-Feb-24 11:31N 52°18' E 003°47'1111.4
2017-Feb-24 10:32N 52°29' E 003°51'1111.3
2017-Feb-24 09:32N 52°40' E 003°54'175 8.7
2017-Feb-23 13:30N 54°00' E 008°14'1415.1
2017-Feb-23 12:33N 53°57' E 008°38'1313.0
2017-Feb-23 11:34N 53°51' E 008°57'1110.9
2017-Feb-23 10:33N 53°53' E 009°15'1110.7
2017-Feb-23 09:33N 53°44' E 009°26'1111.2
2017-Feb-23 08:33N 53°35' E 009°37'1211.8
2017-Feb-23 07:33N 53°32' E 009°56'1 1.4
2017-Feb-23 06:29N 53°31' E 009°57'0 0.0
2017-Feb-23 05:32N 53°31' E 009°57'0 0.0
2017-Feb-23 04:32N 53°31' E 009°57'0 0.0
2017-Feb-23 03:32N 53°31' E 009°57'0 0.0
2017-Feb-23 02:29N 53°31' E 009°57'0 0.0
2017-Feb-23 01:32N 53°31' E 009°57'0 0.0
2017-Feb-23 00:32N 53°31' E 009°57'0 0.0
2017-Feb-22 23:32N 53°31' E 009°57'0 0.0
2017-Feb-22 22:32N 53°31' E 009°57'0 0.0
2017-Feb-22 21:32N 53°31' E 009°57'0 0.0
2017-Feb-22 20:32N 53°31' E 009°57'0 0.0
2017-Feb-22 19:33N 53°31' E 009°57'0 0.0
2017-Feb-22 18:33N 53°31' E 009°57'0 0.0
2017-Feb-22 17:33N 53°31' E 009°57'0 0.0
2017-Feb-22 16:33N 53°31' E 009°57'0 0.0
2017-Feb-22 15:33N 53°31' E 009°57'1 1.2
2017-Feb-22 14:33N 53°32' E 009°56'7 7.5
2017-Feb-22 13:34N 53°34' E 009°44'1110.5
2017-Feb-22 12:34N 53°40' E 009°30'1312.6
2017-Feb-22 11:33N 53°51' E 009°19'1212.2
2017-Feb-22 10:33N 53°51' E 008°58'1212.0
2017-Feb-22 09:33N 53°56' E 008°40'1313.1
2017-Feb-22 08:33N 53°59' E 008°18'1010.3
2017-Feb-22 07:33N 53°58' E 008°01'15311.5
2017-Feb-21 18:18N 52°49' E 004°13'1011.4
2017-Feb-21 17:24N 52°42' E 004°01'1011.3
2017-Feb-21 16:32N 52°35' E 003°50'7911.2
2017-Feb-21 09:27N 51°36' E 002°23'1111.9
2017-Feb-21 08:32N 51°27' E 002°13'1212.5
2017-Feb-21 07:33N 51°16' E 002°05'1211.9
2017-Feb-21 06:33N 51°09' E 001°50'1111.2
2017-Feb-21 05:33N 51°01' E 001°37'1110.6
2017-Feb-21 04:32N 50°53' E 001°26'68 9.8
2017-Feb-20 21:33N 50°19' W 000°07'3310.1
2017-Feb-20 18:16N 50°10' W 000°58'810.3
2017-Feb-20 17:29N 50°08' W 001°10'1010.8
2017-Feb-20 16:33N 50°05' W 001°25'1111.3
2017-Feb-20 15:33N 50°02' W 001°42'1211.9
2017-Feb-20 14:33N 49°59' W 001°60'6011.6
2017-Feb-20 09:23N 49°50' W 003°32'  

Dump ship's entire track history